Terminal Aerodrome Forecast
Issued by NWS Memphis, TN

Home | Current Version | Previous Version | Text Only | Print | Product List | Glossary On
Versions: 1 2 3 4 5 6 7 8 9 10 11 12 13 14 15 16 17 18 19 20 21
000
FTUS44 KMEG 200520
TAFMKL
TAF
KMKL 200520Z 2006/2106 03003KT P6SM FEW050 BKN120
     FM201100 VRB02KT P6SM SCT150
      TEMPO 2011/2014 5SM BR FEW005
     FM201600 03003KT P6SM SKC=

USA.gov is the U.S. government's official web portal to all federal, state and local government web resources and services.